Time;durP1;ratioP1;P1;durP2;ratioP2;P2;SDS_P1;SDS_P2;PMS_P1;PMS_P2;Temp;Humidity;BMP_temperature;BMP_pressure;BME280_temperature;BME280_humidity;BME280_pressure;Samples;Min_cycle;Max_cycle;Signal;HPM_P1;HPM_P2
2023/03/05 05:04:47;;;;;;;21.52;10.30;;;4.20;99.90;;;;;;5803885;22;20231;-69
2023/03/05 05:07:12;;;;;;;12.53;7.93;;;4.10;99.90;;;;;;5061551;28;20549;-69
2023/03/05 05:09:40;;;;;;;21.80;10.73;;;4.10;99.90;;;;;;5063291;28;20172;-67
2023/03/05 05:12:06;;;;;;;15.60;10.27;;;4.10;99.90;;;;;;5072298;28;20264;-70
2023/03/05 05:14:33;;;;;;;13.98;9.50;;;4.20;99.90;;;;;;5058750;28;20201;-70
2023/03/05 05:16:59;;;;;;;18.55;9.02;;;4.10;99.90;;;;;;5049615;28;20176;-68
2023/03/05 05:19:24;;;;;;;18.85;10.30;;;4.10;99.90;;;;;;5065686;28;20184;-68
2023/03/05 05:21:50;;;;;;;13.80;8.00;;;4.10;99.90;;;;;;5073270;28;20666;-70
2023/03/05 05:24:16;;;;;;;16.60;10.60;;;4.00;99.90;;;;;;5072571;28;20874;-69
2023/03/05 05:26:41;;;;;;;17.40;8.67;;;4.10;99.90;;;;;;5073079;28;20223;-69
2023/03/05 05:29:07;;;;;;;15.77;8.70;;;4.10;99.90;;;;;;5071592;28;20543;-69
2023/03/05 05:31:32;;;;;;;14.60;9.27;;;4.10;99.90;;;;;;5067604;28;20172;-69
2023/03/05 05:33:58;;;;;;;19.13;9.93;;;4.10;99.90;;;;;;5071812;28;20188;-69
2023/03/05 05:36:23;;;;;;;15.10;9.47;;;4.00;99.90;;;;;;5069404;28;20240;-68
2023/03/05 05:38:49;;;;;;;13.43;8.73;;;4.10;99.90;;;;;;5053006;28;20192;-68
2023/03/05 05:41:17;;;;;;;12.37;7.77;;;4.10;99.90;;;;;;5053169;28;20524;-68
2023/03/05 05:43:42;;;;;;;18.77;9.25;;;4.10;99.90;;;;;;5052742;28;20571;-69
2023/03/05 05:46:12;;;;;;;18.10;11.50;;;4.10;99.90;;;;;;5053573;28;20231;-69
2023/03/05 05:48:38;;;;;;;18.95;8.13;;;4.10;99.90;;;;;;5052504;28;20215;-68
2023/03/05 05:51:23;;;;;;;10.93;7.20;;;4.10;99.90;;;;;;5052932;28;20208;-68
2023/03/05 05:53:49;;;;;;;19.08;10.93;;;4.10;99.90;;;;;;5034607;28;20254;-68
2023/03/05 05:56:16;;;;;;;14.60;8.85;;;4.00;99.90;;;;;;5053284;28;20215;-68
2023/03/05 05:58:43;;;;;;;15.73;8.77;;;4.10;99.90;;;;;;5056581;28;20169;-68
2023/03/05 06:01:21;;;;;;;15.80;10.10;;;4.10;99.90;;;;;;5056813;28;20245;-68
2023/03/05 06:03:46;;;;;;;13.15;10.00;;;4.10;99.90;;;;;;5056223;28;20181;-68
2023/03/05 06:06:15;;;;;;;20.30;9.47;;;4.00;99.90;;;;;;5056444;28;20721;-68
2023/03/05 06:08:41;;;;;;;13.18;8.35;;;4.00;99.90;;;;;;5038690;28;20173;-67
2023/03/05 06:11:07;;;;;;;14.38;9.77;;;4.10;99.90;;;;;;5056716;28;20269;-67
2023/03/05 06:13:33;;;;;;;13.52;8.98;;;4.00;99.90;;;;;;5055945;28;20166;-68
2023/03/05 06:16:01;;;;;;;19.08;10.23;;;4.00;99.90;;;;;;5056386;28;20229;-68
2023/03/05 06:18:27;;;;;;;14.88;8.75;;;4.00;99.90;;;;;;5056839;28;20177;-67
2023/03/05 06:20:55;;;;;;;16.40;9.82;;;4.00;99.90;;;;;;5043178;28;20171;-67
2023/03/05 06:23:21;;;;;;;18.58;9.48;;;4.00;99.90;;;;;;5075857;28;20192;-67
2023/03/05 06:25:46;;;;;;;18.60;11.17;;;4.00;99.90;;;;;;5072534;28;20211;-68
2023/03/05 06:28:12;;;;;;;15.47;9.17;;;4.00;99.90;;;;;;5072807;28;20451;-68
2023/03/05 06:30:37;;;;;;;17.40;8.47;;;4.00;99.90;;;;;;5060012;28;20178;-69
2023/03/05 06:33:03;;;;;;;15.27;7.80;;;4.00;99.90;;;;;;5075478;28;20611;-69
2023/03/05 06:35:28;;;;;;;15.97;8.90;;;4.10;99.90;;;;;;5057693;28;20255;-67
2023/03/05 06:37:54;;;;;;;8.70;7.23;;;4.10;99.90;;;;;;5075040;28;20250;-69
2023/03/05 06:40:20;;;;;;;10.00;6.10;;;4.10;99.90;;;;;;5075964;28;20171;-68
2023/03/05 06:42:45;;;;;;;9.23;5.20;;;4.20;99.90;;;;;;5075463;28;20193;-68
2023/03/05 06:45:11;;;;;;;7.23;5.53;;;4.20;99.90;;;;;;5072035;28;20691;-68
2023/03/05 06:47:36;;;;;;;7.60;5.87;;;4.20;99.90;;;;;;5056716;28;20187;-68
2023/03/05 06:50:02;;;;;;;8.27;4.23;;;4.20;99.90;;;;;;5075285;28;20251;-68
2023/03/05 06:52:28;;;;;;;10.57;6.87;;;4.30;99.90;;;;;;5075552;28;20180;-69
2023/03/05 06:54:54;;;;;;;6.97;3.80;;;4.30;99.90;;;;;;5075143;28;20187;-69
2023/03/05 06:57:21;;;;;;;9.60;5.88;;;4.30;99.90;;;;;;5074967;28;20172;-69
2023/03/05 06:59:46;;;;;;;8.30;4.93;;;4.40;99.90;;;;;;5075591;28;20181;-69
2023/03/05 07:02:13;;;;;;;12.13;6.17;;;4.40;99.90;;;;;;5057345;28;20199;-69
2023/03/05 07:04:38;;;;;;;10.82;5.95;;;4.40;99.90;;;;;;5074951;28;20191;-69
2023/03/05 07:07:04;;;;;;;7.03;4.90;;;4.40;99.90;;;;;;5060879;28;20667;-69
2023/03/05 07:09:30;;;;;;;9.18;4.88;;;4.40;99.90;;;;;;5055320;28;20432;-69
2023/03/05 07:11:56;;;;;;;9.00;4.17;;;4.50;99.90;;;;;;5055414;28;20651;-70
2023/03/05 07:14:21;;;;;;;10.30;4.83;;;4.50;99.90;;;;;;5065901;28;20712;-69
2023/03/05 07:16:47;;;;;;;10.03;5.53;;;4.50;99.90;;;;;;5066148;28;20182;-69
2023/03/05 07:19:13;;;;;;;9.80;4.50;;;4.60;99.90;;;;;;5055091;28;20566;-71
2023/03/05 07:21:39;;;;;;;14.43;5.73;;;4.60;99.90;;;;;;5073423;28;20235;-69
2023/03/05 07:24:05;;;;;;;7.37;5.97;;;4.60;99.90;;;;;;5074508;28;20183;-69
2023/03/05 07:26:32;;;;;;;7.77;4.53;;;4.60;99.90;;;;;;5069173;28;20240;-69
2023/03/05 07:28:58;;;;;;;11.93;6.35;;;4.70;99.90;;;;;;5054611;28;20470;-69
2023/03/05 07:31:29;;;;;;;9.80;5.40;;;4.70;99.90;;;;;;5037001;28;20661;-69
2023/03/05 07:33:55;;;;;;;9.77;4.88;;;4.70;99.90;;;;;;5053915;28;20428;-69
2023/03/05 07:36:20;;;;;;;8.17;6.33;;;4.70;99.90;;;;;;5068868;28;20180;-67
2023/03/05 07:38:46;;;;;;;6.60;5.80;;;4.70;99.90;;;;;;5074803;28;20655;-69
2023/03/05 07:41:18;;;;;;;12.20;7.63;;;4.70;99.90;;;;;;5075250;28;20198;-69
2023/03/05 07:43:46;;;;;;;9.30;6.03;;;4.70;99.90;;;;;;5074380;28;20257;-75
2023/03/05 07:46:15;;;;;;;12.35;4.75;;;4.70;99.90;;;;;;5072825;28;20183;-71
2023/03/05 07:48:40;;;;;;;9.80;6.97;;;4.70;99.90;;;;;;5074367;28;20188;-73
2023/03/05 07:51:09;;;;;;;7.70;6.90;;;4.70;99.90;;;;;;5074422;28;20179;-72
2023/03/05 07:53:35;;;;;;;11.50;5.97;;;4.70;99.90;;;;;;5073371;28;20170;-71
2023/03/05 07:56:01;;;;;;;8.40;4.30;;;4.80;99.90;;;;;;5061551;28;20181;-68
2023/03/05 07:58:26;;;;;;;7.03;6.03;;;4.80;99.90;;;;;;5054068;28;20176;-68
2023/03/05 08:00:52;;;;;;;7.10;5.67;;;4.80;99.90;;;;;;5053754;28;20167;-70
2023/03/05 08:03:18;;;;;;;8.37;4.77;;;4.90;99.90;;;;;;5073078;28;20311;-70
2023/03/05 08:05:43;;;;;;;7.53;5.80;;;4.90;99.90;;;;;;5073905;28;20201;-69
2023/03/05 08:08:09;;;;;;;9.97;6.77;;;5.00;99.90;;;;;;5074047;28;20636;-68
2023/03/05 08:10:36;;;;;;;14.30;6.73;;;5.00;99.90;;;;;;5074125;28;20165;-68
2023/03/05 08:13:02;;;;;;;11.50;5.45;;;5.10;99.90;;;;;;5073059;28;20648;-68
2023/03/05 08:15:31;;;;;;;13.75;4.93;;;5.10;99.90;;;;;;5071887;28;20242;-70
2023/03/05 08:17:57;;;;;;;11.77;6.88;;;5.20;99.90;;;;;;5055871;28;20182;-70
2023/03/05 08:20:23;;;;;;;12.90;4.90;;;5.20;99.90;;;;;;5073020;28;20238;-71
2023/03/05 08:22:49;;;;;;;6.57;5.53;;;5.20;99.90;;;;;;5073449;28;20194;-75
2023/03/05 08:25:14;;;;;;;11.00;7.13;;;5.20;99.90;;;;;;5039668;28;20446;-72
2023/03/05 08:27:43;;;;;;;11.80;5.20;;;5.30;99.90;;;;;;5053622;28;20207;-70
2023/03/05 08:30:12;;;;;;;11.55;6.38;;;5.30;99.90;;;;;;5035990;28;20206;-73
2023/03/05 08:32:38;;;;;;;6.18;5.22;;;5.30;99.90;;;;;;5040141;28;20270;-72
2023/03/05 08:35:05;;;;;;;7.32;4.97;;;5.40;99.90;;;;;;5072416;28;20683;-69
2023/03/05 08:37:31;;;;;;;13.82;7.00;;;5.40;99.90;;;;;;5073654;28;20541;-69
2023/03/05 08:39:57;;;;;;;13.90;6.40;;;5.40;99.90;;;;;;5073120;28;20168;-68
2023/03/05 08:42:23;;;;;;;8.40;4.67;;;5.30;99.90;;;;;;5072573;28;20206;-67
2023/03/05 08:44:49;;;;;;;8.70;6.07;;;5.40;99.90;;;;;;5056144;28;20558;-67
2023/03/05 08:47:15;;;;;;;9.20;5.50;;;5.40;99.90;;;;;;5052579;28;20165;-67
2023/03/05 08:49:40;;;;;;;9.57;5.43;;;5.40;99.90;;;;;;5067043;28;20173;-68
2023/03/05 08:52:06;;;;;;;10.07;5.60;;;5.40;99.90;;;;;;5072600;28;20669;-67
2023/03/05 08:54:33;;;;;;;6.57;4.80;;;5.40;99.90;;;;;;5072722;28;20275;-68
2023/03/05 08:56:58;;;;;;;11.38;6.65;;;5.40;99.90;;;;;;5055320;28;20169;-71
2023/03/05 08:59:24;;;;;;;13.73;5.10;;;5.40;99.90;;;;;;5054200;28;20240;-69
2023/03/05 09:01:49;;;;;;;11.33;5.67;;;5.40;99.90;;;;;;5056465;28;20211;-69
2023/03/05 09:04:15;;;;;;;14.60;7.10;;;5.40;99.90;;;;;;5052724;28;20233;-70
2023/03/05 09:06:41;;;;;;;6.40;4.57;;;5.40;99.90;;;;;;5057179;28;20183;-68
2023/03/05 09:09:07;;;;;;;11.63;6.03;;;5.40;99.90;;;;;;5068993;28;20519;-70
2023/03/05 09:11:35;;;;;;;10.32;6.57;;;5.50;99.90;;;;;;5061812;28;20195;-69
2023/03/05 09:14:01;;;;;;;10.35;6.13;;;5.50;99.90;;;;;;5048606;28;20188;-69
2023/03/05 09:16:27;;;;;;;14.48;7.40;;;5.60;99.90;;;;;;5079333;28;20291;-68
2023/03/05 09:18:53;;;;;;;12.13;6.90;;;5.60;99.90;;;;;;5085549;28;20184;-69
2023/03/05 09:21:18;;;;;;;9.47;5.77;;;5.60;99.90;;;;;;5082435;28;20243;-70
2023/03/05 09:23:46;;;;;;;7.77;5.40;;;5.70;99.90;;;;;;5066347;28;20280;-70
2023/03/05 09:26:14;;;;;;;11.60;5.45;;;5.80;99.90;;;;;;5066016;28;20156;-69
2023/03/05 09:28:41;;;;;;;12.23;6.25;;;5.80;99.90;;;;;;5066310;28;20292;-69
2023/03/05 09:31:08;;;;;;;9.15;6.75;;;5.80;99.90;;;;;;5068503;28;20274;-70
2023/03/05 09:33:35;;;;;;;10.75;5.20;;;5.90;99.90;;;;;;5073559;28;20172;-71
2023/03/05 09:36:01;;;;;;;9.27;6.30;;;5.90;99.90;;;;;;5072774;28;20185;-70
2023/03/05 09:38:28;;;;;;;12.10;5.35;;;5.90;99.90;;;;;;5071478;28;20393;-68
2023/03/05 09:41:17;;;;;;;12.95;5.80;;;6.00;99.90;;;;;;5070214;28;20231;-69
2023/03/05 09:44:00;;;;;;;7.70;6.22;;;6.10;99.90;;;;;;5082755;28;20200;-70
2023/03/05 09:47:00;;;;;;;8.68;5.68;;;6.20;99.90;;;;;;5089354;28;20277;-69
2023/03/05 09:50:02;;;;;;;9.18;5.65;;;6.30;99.90;;;;;;4994476;28;20202;-67
2023/03/05 09:52:34;;;;;;;9.50;5.88;;;6.30;99.90;;;;;;5087702;28;20255;-66
2023/03/05 09:55:00;;;;;;;9.50;6.03;;;6.30;99.90;;;;;;5083666;28;20189;-70
2023/03/05 09:57:40;;;;;;;14.98;6.22;;;6.30;99.90;;;;;;5087671;28;20211;-74
2023/03/05 10:00:37;;;;;;;10.60;6.18;;;6.40;99.90;;;;;;5062226;28;20196;-70
2023/03/05 10:03:24;;;;;;;13.45;6.32;;;6.40;99.90;;;;;;5059311;28;20216;-72
2023/03/05 10:06:02;;;;;;;12.85;6.47;;;6.40;99.90;;;;;;5069689;28;20298;-70
2023/03/05 10:08:40;;;;;;;14.77;7.32;;;6.50;99.90;;;;;;5063008;28;20177;-70
2023/03/05 10:11:17;;;;;;;12.98;6.32;;;6.50;99.90;;;;;;5089290;28;20184;-68
2023/03/05 10:13:45;;;;;;;12.30;5.65;;;6.50;99.90;;;;;;5089656;28;20215;-71
2023/03/05 10:16:58;;;;;;;18.33;6.20;;;6.50;99.90;;;;;;5090035;28;20272;-71
2023/03/05 10:20:02;;;;;;;9.85;6.50;;;6.60;99.90;;;;;;5043994;28;20263;-69
2023/03/05 10:22:54;;;;;;;11.25;6.97;;;6.60;99.90;;;;;;5069647;28;20409;-70
2023/03/05 10:25:27;;;;;;;11.02;6.30;;;6.60;99.90;;;;;;5069517;28;20268;-70
2023/03/05 10:28:36;;;;;;;8.23;5.63;;;6.60;99.90;;;;;;5069759;28;20165;-73
2023/03/05 10:31:27;;;;;;;11.05;6.40;;;6.60;99.90;;;;;;5058817;28;20260;-70
2023/03/05 10:34:13;;;;;;;9.52;5.63;;;6.50;99.90;;;;;;5088687;28;20184;-68
2023/03/05 10:37:01;;;;;;;12.38;6.47;;;6.50;99.90;;;;;;5071517;28;20248;-70
2023/03/05 10:39:51;;;;;;;12.65;7.38;;;6.40;99.90;;;;;;5088102;28;20191;-70
2023/03/05 10:42:41;;;;;;;8.45;5.72;;;6.30;99.90;;;;;;5065745;28;20240;-68
2023/03/05 10:45:21;;;;;;;11.32;5.97;;;6.20;99.90;;;;;;5108123;28;20357;-68
2023/03/05 10:48:10;;;;;;;10.52;5.22;;;6.20;99.90;;;;;;5092076;28;20239;-68
2023/03/05 10:50:45;;;;;;;8.40;5.20;;;6.20;99.90;;;;;;5089313;28;20201;-69
2023/03/05 10:53:16;;;;;;;10.30;5.60;;;6.30;99.90;;;;;;5076052;28;20176;-71
2023/03/05 10:55:42;;;;;;;15.75;6.85;;;6.30;99.90;;;;;;5069019;28;20199;-68
2023/03/05 10:58:12;;;;;;;13.03;6.50;;;6.40;99.90;;;;;;5069111;28;20430;-67
2023/03/05 11:00:39;;;;;;;9.45;5.78;;;6.50;99.90;;;;;;5082636;28;20303;-69
2023/03/05 11:03:08;;;;;;;10.23;5.53;;;6.50;99.90;;;;;;5088049;28;20230;-72
2023/03/05 11:05:47;;;;;;;9.93;5.68;;;6.50;99.90;;;;;;5088076;28;20271;-70
2023/03/05 11:08:30;;;;;;;11.35;7.05;;;6.60;99.90;;;;;;5074892;28;20169;-73
2023/03/05 11:11:08;;;;;;;13.93;5.32;;;6.50;99.90;;;;;;5051291;28;20185;-73
2023/03/05 11:13:37;;;;;;;12.82;7.25;;;6.60;99.90;;;;;;5052169;28;20195;-70
2023/03/05 11:16:05;;;;;;;11.85;6.57;;;6.60;99.90;;;;;;5068902;28;20171;-68
2023/03/05 11:18:35;;;;;;;8.90;6.18;;;6.60;99.90;;;;;;5084419;28;20176;-71
2023/03/05 11:21:10;;;;;;;15.38;7.40;;;6.60;99.90;;;;;;5088558;28;20481;-70
2023/03/05 11:23:36;;;;;;;14.43;6.78;;;6.70;99.90;;;;;;5087365;28;20219;-67
2023/03/05 11:26:23;;;;;;;20.60;8.00;;;6.60;99.90;;;;;;5088487;28;20265;-70
2023/03/05 11:28:52;;;;;;;9.60;5.80;;;6.70;99.90;;;;;;5087523;28;20449;-67
2023/03/05 11:31:17;;;;;;;7.63;5.35;;;6.70;99.90;;;;;;5087637;28;20181;-70
2023/03/05 11:34:19;;;;;;;13.13;7.37;;;6.80;99.90;;;;;;5087461;28;20244;-67
2023/03/05 11:36:54;;;;;;;13.05;7.55;;;6.80;99.90;;;;;;5088165;28;20198;-71
2023/03/05 11:39:24;;;;;;;15.77;6.30;;;6.80;99.90;;;;;;5078150;28;20176;-65
2023/03/05 11:41:55;;;;;;;10.77;6.70;;;6.80;99.90;;;;;;5070030;28;20364;-67
2023/03/05 11:44:38;;;;;;;10.25;7.38;;;6.80;99.90;;;;;;5069664;28;20192;-68
2023/03/05 11:47:12;;;;;;;11.30;7.30;;;6.80;99.90;;;;;;5086974;28;20188;-70
2023/03/05 11:49:43;;;;;;;16.05;6.70;;;6.70;99.90;;;;;;5087697;28;20272;-70
2023/03/05 11:52:32;;;;;;;10.60;7.25;;;6.60;99.90;;;;;;5087802;28;20184;-70
2023/03/05 11:55:16;;;;;;;10.57;6.15;;;6.60;99.90;;;;;;5070104;28;20220;-69
2023/03/05 11:58:03;;;;;;;17.40;8.75;;;6.60;99.90;;;;;;5085882;28;20189;-66
2023/03/05 12:00:31;;;;;;;12.93;8.10;;;6.60;99.90;;;;;;5087284;28;20296;-76
2023/03/05 12:03:01;;;;;;;8.88;6.78;;;6.70;99.90;;;;;;5087765;28;20200;-72
2023/03/05 12:05:28;;;;;;;9.77;6.85;;;6.70;99.90;;;;;;5087775;28;20312;-74
2023/03/05 12:07:58;;;;;;;11.20;6.53;;;6.70;99.90;;;;;;5083237;28;20182;-72
2023/03/05 12:10:25;;;;;;;16.23;6.63;;;6.80;99.90;;;;;;5084805;28;20225;-71
2023/03/05 12:12:58;;;;;;;9.85;6.10;;;6.80;99.90;;;;;;5087162;28;20179;-70
2023/03/05 12:15:24;;;;;;;8.90;6.05;;;6.90;99.90;;;;;;5083224;28;20222;-68
2023/03/05 12:18:05;;;;;;;6.80;5.10;;;7.10;99.90;;;;;;5087037;28;20232;-69
2023/03/05 12:20:45;;;;;;;6.85;5.45;;;7.10;99.90;;;;;;5080416;28;20180;-74
2023/03/05 12:23:16;;;;;;;10.25;5.30;;;7.20;99.90;;;;;;5072617;28;20204;-73
2023/03/05 12:26:00;;;;;;;5.85;4.65;;;7.20;99.90;;;;;;5068169;28;20200;-68
2023/03/05 12:28:34;;;;;;;8.45;4.80;;;7.20;99.90;;;;;;5067521;28;20173;-73
2023/03/05 12:31:05;;;;;;;6.90;6.07;;;7.10;99.90;;;;;;5064743;28;20183;-72
2023/03/05 12:33:39;;;;;;;9.88;5.30;;;7.10;99.90;;;;;;5086067;28;20182;-73
2023/03/05 12:36:19;;;;;;;9.13;5.15;;;6.90;99.90;;;;;;5087460;28;20274;-73
2023/03/05 12:38:52;;;;;;;7.72;5.53;;;6.80;99.90;;;;;;5067641;28;20177;-73
2023/03/05 12:41:23;;;;;;;13.65;8.05;;;6.80;99.90;;;;;;5068961;28;20401;-67
2023/03/05 12:44:04;;;;;;;8.98;7.10;;;6.80;99.90;;;;;;5048698;28;20185;-69
2023/03/05 12:46:34;;;;;;;12.05;6.40;;;6.80;99.90;;;;;;5083079;28;20176;-69
2023/03/05 12:49:19;;;;;;;12.07;6.78;;;6.70;99.90;;;;;;5066893;28;20165;-69
2023/03/05 12:51:47;;;;;;;9.70;5.60;;;6.70;99.90;;;;;;5072308;28;20172;-67
2023/03/05 12:54:30;;;;;;;12.38;6.65;;;6.70;99.90;;;;;;5066581;28;20209;-67
2023/03/05 12:56:59;;;;;;;8.90;5.82;;;6.60;99.90;;;;;;5066981;28;20196;-68
2023/03/05 12:59:34;;;;;;;7.30;5.45;;;6.60;99.90;;;;;;5075113;28;20172;-68
2023/03/05 13:02:03;;;;;;;9.65;6.10;;;6.70;99.90;;;;;;5076918;28;20192;-67
2023/03/05 13:04:31;;;;;;;10.07;6.10;;;6.70;99.90;;;;;;5080970;28;20204;-69
2023/03/05 13:07:06;;;;;;;9.65;5.97;;;6.60;99.90;;;;;;5086432;28;20172;-68
2023/03/05 13:09:35;;;;;;;12.57;6.78;;;6.60;99.90;;;;;;5082406;28;20168;-71
2023/03/05 13:12:08;;;;;;;8.30;5.35;;;6.60;99.90;;;;;;5066891;28;20327;-72
2023/03/05 13:14:43;;;;;;;16.63;7.40;;;6.70;99.90;;;;;;5066563;28;20191;-69
2023/03/05 13:17:33;;;;;;;9.38;6.22;;;6.60;99.90;;;;;;5078460;28;20321;-73
2023/03/05 13:20:01;;;;;;;8.35;6.20;;;6.60;99.90;;;;;;5086001;28;20176;-72
2023/03/05 13:22:27;;;;;;;9.50;6.40;;;6.60;99.90;;;;;;5086680;28;20335;-71
2023/03/05 13:25:12;;;;;;;11.52;5.00;;;6.70;99.90;;;;;;5085624;28;20263;-73
2023/03/05 13:27:38;;;;;;;13.68;7.40;;;6.70;99.90;;;;;;5085002;28;20171;-72
2023/03/05 13:30:04;;;;;;;11.97;6.33;;;6.70;99.90;;;;;;5084307;28;20193;-73
2023/03/05 13:32:31;;;;;;;14.60;6.97;;;6.70;99.90;;;;;;5083285;28;20165;-75
2023/03/05 13:34:59;;;;;;;8.70;6.20;;;6.70;99.90;;;;;;5082938;28;20196;-74
2023/03/05 13:37:30;;;;;;;13.07;7.68;;;6.70;99.90;;;;;;5085464;28;20164;-74
2023/03/05 13:40:03;;;;;;;10.25;7.38;;;6.70;99.90;;;;;;5079381;28;20192;-75
2023/03/05 13:42:33;;;;;;;12.63;6.75;;;6.70;99.90;;;;;;5068696;28;20267;-75
2023/03/05 13:45:03;;;;;;;11.98;7.50;;;6.60;99.90;;;;;;5067984;28;20197;-74
2023/03/05 13:47:32;;;;;;;13.13;7.25;;;6.60;99.90;;;;;;5086417;28;20191;-75
2023/03/05 13:50:00;;;;;;;10.05;6.18;;;6.70;99.90;;;;;;5082623;28;20267;-77
2023/03/05 13:52:31;;;;;;;27.63;6.70;;;6.70;99.90;;;;;;5081500;28;20177;-75
2023/03/05 13:54:58;;;;;;;9.05;5.65;;;6.70;99.90;;;;;;5074312;28;20420;-75
2023/03/05 13:57:38;;;;;;;11.25;6.10;;;6.70;99.90;;;;;;5079582;28;20422;-76
2023/03/05 14:00:23;;;;;;;11.65;6.40;;;6.70;99.90;;;;;;5072143;28;20239;-74
2023/03/05 14:02:49;;;;;;;6.47;4.80;;;6.60;99.90;;;;;;5069309;28;20205;-75
2023/03/05 14:05:15;;;;;;;9.13;5.17;;;6.60;99.90;;;;;;5066796;28;20215;-75
2023/03/05 14:07:42;;;;;;;13.03;7.00;;;6.60;99.90;;;;;;5064708;28;20401;-76
2023/03/05 14:10:27;;;;;;;9.68;6.63;;;6.60;99.90;;;;;;5074574;28;20472;-75
2023/03/05 14:12:53;;;;;;;7.72;5.38;;;6.60;99.90;;;;;;5075588;28;20176;-74
2023/03/05 14:15:34;;;;;;;9.35;5.85;;;6.60;99.90;;;;;;5084229;28;20184;-75
2023/03/05 14:18:12;;;;;;;9.27;4.47;;;6.60;99.90;;;;;;5078052;28;20191;-75
2023/03/05 14:20:39;;;;;;;10.82;6.40;;;6.60;99.90;;;;;;5069884;28;20169;-75
2023/03/05 14:23:41;;;;;;;10.98;5.72;;;6.60;99.90;;;;;;5069633;28;20199;-75
2023/03/05 14:26:47;;;;;;;9.35;5.13;;;6.60;99.90;;;;;;5070021;28;20156;-75
2023/03/05 14:29:16;;;;;;;5.78;4.38;;;6.50;99.90;;;;;;5070031;28;20285;-75
2023/03/05 14:32:05;;;;;;;12.90;6.35;;;6.40;99.90;;;;;;5079760;28;20566;-75
2023/03/05 14:34:36;;;;;;;8.60;4.68;;;6.30;99.90;;;;;;5088025;28;20396;-75
2023/03/05 14:37:28;;;;;;;9.70;5.15;;;6.30;99.90;;;;;;5072463;28;20164;-74
2023/03/05 14:40:04;;;;;;;6.57;4.22;;;6.20;99.90;;;;;;5089726;28;20171;-74
2023/03/05 14:42:34;;;;;;;5.13;3.83;;;6.20;99.90;;;;;;5073822;28;20192;-74
2023/03/05 14:45:15;;;;;;;8.57;5.40;;;6.10;99.90;;;;;;5068995;28;20188;-74
2023/03/05 14:47:41;;;;;;;10.10;5.10;;;6.00;99.90;;;;;;5081364;28;20167;-75
2023/03/05 14:50:13;;;;;;;8.67;5.70;;;6.00;99.90;;;;;;5071195;28;20238;-75
2023/03/05 14:52:39;;;;;;;6.25;4.70;;;6.00;99.90;;;;;;5069296;28;20418;-75
2023/03/05 14:55:05;;;;;;;9.30;6.27;;;5.90;99.90;;;;;;5063601;28;20237;-73
2023/03/05 14:57:31;;;;;;;7.70;6.07;;;5.90;99.90;;;;;;5075941;28;20430;-74
2023/03/05 14:59:57;;;;;;;14.02;6.00;;;5.90;99.90;;;;;;5054335;28;20173;-74
2023/03/05 15:02:25;;;;;;;12.80;6.23;;;5.90;99.90;;;;;;5088681;28;20208;-74
2023/03/05 15:04:51;;;;;;;10.55;6.35;;;5.80;99.90;;;;;;5088756;28;20180;-75
2023/03/05 15:07:24;;;;;;;7.87;5.00;;;5.80;99.90;;;;;;5088643;28;20332;-74
2023/03/05 15:09:50;;;;;;;6.00;4.65;;;5.80;99.90;;;;;;5085638;28;20468;-75
2023/03/05 15:12:16;;;;;;;8.00;5.60;;;5.80;99.90;;;;;;5075688;28;20401;-75
2023/03/05 15:14:42;;;;;;;8.63;4.53;;;5.80;99.90;;;;;;5068510;28;20190;-74
2023/03/05 15:17:15;;;;;;;9.80;5.47;;;5.80;99.90;;;;;;5027863;28;20346;-73
2023/03/05 15:19:41;;;;;;;6.78;4.47;;;5.80;99.90;;;;;;5027837;28;20197;-74
2023/03/05 15:22:10;;;;;;;9.70;6.47;;;5.80;99.90;;;;;;5034935;28;20221;-74
2023/03/05 15:24:36;;;;;;;13.40;6.15;;;5.80;99.90;;;;;;5047135;28;20204;-77
2023/03/05 15:27:02;;;;;;;8.17;4.47;;;5.70;99.90;;;;;;5044966;28;20177;-74
2023/03/05 15:29:29;;;;;;;12.25;6.03;;;5.70;99.90;;;;;;5014081;28;20273;-74
2023/03/05 15:31:54;;;;;;;8.25;6.55;;;5.60;99.90;;;;;;5047176;28;20200;-72
2023/03/05 15:34:20;;;;;;;6.90;4.90;;;5.60;99.90;;;;;;5045395;28;20259;-72
2023/03/05 15:36:46;;;;;;;9.23;6.40;;;5.60;99.90;;;;;;5047202;28;20280;-74
2023/03/05 15:39:11;;;;;;;7.67;5.57;;;5.60;99.90;;;;;;5046850;28;20174;-73
2023/03/05 15:41:37;;;;;;;14.60;6.70;;;5.60;99.90;;;;;;5043683;28;20217;-74
2023/03/05 15:44:02;;;;;;;6.97;5.77;;;5.60;99.90;;;;;;5045113;28;20204;-72
2023/03/05 15:46:28;;;;;;;8.20;5.10;;;5.60;99.90;;;;;;5040280;28;20183;-72
2023/03/05 15:48:54;;;;;;;13.83;6.17;;;5.60;99.90;;;;;;5063540;28;20250;-74
2023/03/05 15:51:20;;;;;;;6.93;5.90;;;5.50;99.90;;;;;;5068318;28;20193;-70
2023/03/05 15:53:46;;;;;;;7.18;4.72;;;5.50;99.90;;;;;;5067201;28;20171;-74
2023/03/05 15:56:15;;;;;;;9.40;5.65;;;5.50;99.90;;;;;;5070753;28;20160;-74
2023/03/05 15:58:42;;;;;;;10.52;6.32;;;5.50;99.90;;;;;;5084269;28;20472;-71
2023/03/05 16:01:09;;;;;;;7.40;5.25;;;5.40;99.90;;;;;;5087432;28;20212;-74
2023/03/05 16:03:35;;;;;;;8.48;6.63;;;5.40;99.90;;;;;;5087426;28;20207;-75
2023/03/05 16:06:01;;;;;;;9.00;7.20;;;5.40;99.90;;;;;;5087186;28;20386;-74
2023/03/05 16:08:27;;;;;;;16.27;6.90;;;5.30;99.90;;;;;;5087202;28;20238;-74
2023/03/05 16:10:53;;;;;;;9.23;6.00;;;5.30;99.90;;;;;;5086256;28;20158;-74
2023/03/05 16:13:18;;;;;;;8.63;6.40;;;5.20;99.90;;;;;;5048972;28;20165;-72
2023/03/05 16:15:46;;;;;;;9.63;7.33;;;5.20;99.90;;;;;;5083622;28;20181;-73
2023/03/05 16:18:14;;;;;;;10.48;5.78;;;5.20;99.90;;;;;;5069846;28;20177;-74
2023/03/05 16:20:40;;;;;;;8.43;5.90;;;5.20;99.90;;;;;;5087305;28;20163;-70
2023/03/05 16:23:06;;;;;;;8.90;6.00;;;5.20;99.90;;;;;;5087146;28;20227;-73
2023/03/05 16:25:32;;;;;;;9.52;6.97;;;5.20;99.90;;;;;;5069829;28;20235;-74
2023/03/05 16:27:57;;;;;;;9.10;6.57;;;5.20;99.90;;;;;;5073821;28;20172;-72
2023/03/05 16:30:23;;;;;;;7.40;5.73;;;5.20;99.90;;;;;;5072088;28;20420;-75
2023/03/05 16:32:48;;;;;;;8.20;5.90;;;5.20;99.90;;;;;;5085098;28;20395;-72
2023/03/05 16:35:14;;;;;;;11.37;6.97;;;5.10;99.90;;;;;;5086059;28;20184;-70
2023/03/05 16:37:43;;;;;;;11.33;6.47;;;5.10;99.90;;;;;;5084945;28;20374;-74
2023/03/05 16:40:10;;;;;;;7.65;6.18;;;5.10;99.90;;;;;;5083113;28;20201;-74
2023/03/05 16:42:35;;;;;;;14.30;6.47;;;5.00;99.90;;;;;;5084985;28;20226;-73
2023/03/05 16:45:02;;;;;;;9.60;6.23;;;5.00;99.90;;;;;;5085808;28;20208;-74
2023/03/05 16:47:28;;;;;;;10.65;5.50;;;5.00;99.90;;;;;;5085935;28;20230;-70
2023/03/05 16:49:53;;;;;;;11.13;5.90;;;5.00;99.90;;;;;;5077118;28;20328;-71
2023/03/05 16:52:19;;;;;;;6.77;5.10;;;5.00;99.90;;;;;;5072234;28;20194;-72
2023/03/05 16:54:44;;;;;;;5.87;4.20;;;5.00;99.90;;;;;;5085554;28;20281;-72
2023/03/05 16:57:10;;;;;;;11.77;6.50;;;5.00;99.90;;;;;;5073938;28;20165;-71
2023/03/05 16:59:36;;;;;;;6.87;4.00;;;5.10;99.90;;;;;;5072802;28;20225;-71
2023/03/05 17:02:03;;;;;;;7.10;5.20;;;5.00;99.90;;;;;;5075541;28;20194;-71
2023/03/05 17:04:29;;;;;;;8.95;5.03;;;5.00;99.90;;;;;;5067448;28;20435;-69
2023/03/05 17:06:55;;;;;;;9.27;6.70;;;5.00;99.90;;;;;;5086069;28;20184;-75
2023/03/05 17:09:24;;;;;;;9.43;6.93;;;5.00;99.90;;;;;;5071912;28;20657;-73
2023/03/05 17:11:51;;;;;;;8.38;6.45;;;5.00;99.90;;;;;;5066674;28;20197;-71
2023/03/05 17:14:16;;;;;;;9.18;5.65;;;5.00;99.90;;;;;;5067494;28;20425;-70
2023/03/05 17:16:42;;;;;;;10.70;7.57;;;5.00;99.90;;;;;;5086051;28;20173;-72
2023/03/05 17:19:08;;;;;;;10.00;6.67;;;5.00;99.90;;;;;;5057177;28;20188;-74
2023/03/05 17:21:33;;;;;;;9.07;6.60;;;5.00;99.90;;;;;;5076291;28;20423;-73
2023/03/05 17:23:59;;;;;;;13.70;8.10;;;4.90;99.90;;;;;;5069470;28;20200;-69
2023/03/05 17:26:24;;;;;;;10.00;6.53;;;4.90;99.90;;;;;;5076825;28;20187;-72
2023/03/05 17:28:50;;;;;;;16.17;9.50;;;5.00;99.90;;;;;;5080454;28;20177;-75
2023/03/05 17:31:16;;;;;;;9.07;6.00;;;5.00;99.90;;;;;;5071608;28;20192;-73
2023/03/05 17:33:42;;;;;;;12.00;8.27;;;4.90;99.90;;;;;;5078271;28;20393;-70
2023/03/05 17:36:15;;;;;;;10.50;6.70;;;4.90;99.90;;;;;;5075534;28;20172;-71
2023/03/05 17:38:41;;;;;;;12.05;8.05;;;4.90;99.90;;;;;;5086195;28;20183;-72
2023/03/05 17:41:07;;;;;;;9.47;7.17;;;4.90;99.90;;;;;;5084480;28;20211;-72
2023/03/05 17:43:34;;;;;;;16.70;7.93;;;4.90;99.90;;;;;;5084060;28;20259;-72
2023/03/05 17:46:00;;;;;;;14.13;7.45;;;4.90;99.90;;;;;;5041873;28;20166;-69
2023/03/05 17:48:26;;;;;;;10.63;7.05;;;4.90;99.90;;;;;;5068951;28;20184;-70
2023/03/05 17:50:52;;;;;;;6.83;5.20;;;4.90;99.90;;;;;;5086393;28;20166;-72
2023/03/05 17:53:18;;;;;;;10.38;6.50;;;4.90;99.90;;;;;;5071385;28;20466;-71
2023/03/05 17:55:43;;;;;;;11.07;6.90;;;4.80;99.90;;;;;;5089550;28;20412;-71
2023/03/05 17:58:09;;;;;;;11.20;6.60;;;4.80;99.90;;;;;;5063023;28;20302;-71
2023/03/05 18:00:36;;;;;;;6.97;5.70;;;4.80;99.90;;;;;;5070309;28;20177;-71
2023/03/05 18:03:03;;;;;;;12.15;7.10;;;4.80;99.90;;;;;;5084453;28;20205;-69
2023/03/05 18:05:31;;;;;;;7.82;6.60;;;4.70;99.90;;;;;;5075464;28;20212;-69
2023/03/05 18:07:57;;;;;;;11.20;6.72;;;4.80;99.90;;;;;;5087910;28;20195;-69
2023/03/05 18:10:27;;;;;;;8.60;6.45;;;4.80;99.90;;;;;;5083871;28;20220;-71